TimeMST,TemperatureF,Dew PointF,Humidity,Sea Level PressureIn,VisibilityMPH,Wind Direction,Wind SpeedMPH,Gust SpeedMPH,PrecipitationIn,Events,Conditions,WindDirDegrees,DateUTC
12:56 AM,33.1,26.1,75,29.65,10.0,East,6.9,-,N/A,,Clear,100,2011-11-25 07:56:00
1:56 AM,32.0,26.1,79,29.69,10.0,NNE,6.9,-,N/A,,Clear,30,2011-11-25 08:56:00
2:56 AM,30.0,26.1,85,29.70,10.0,NNE,5.8,-,N/A,,Clear,30,2011-11-25 09:56:00
3:56 AM,30.9,27.0,85,29.71,10.0,ENE,5.8,-,N/A,,Clear,60,2011-11-25 10:56:00
5:29 AM,30.2,28.4,93,29.65,5.0,East,5.8,-,N/A,,Scattered Clouds,80,2011-11-25 12:29:00
5:41 AM,30.2,28.4,93,29.65,4.0,ENE,5.8,-,N/A,,Mostly Cloudy,70,2011-11-25 12:41:00
5:56 AM,30.0,28.0,92,29.71,3.0,ENE,3.5,-,N/A,,Overcast,60,2011-11-25 12:56:00
6:17 AM,28.4,28.4,100,29.65,2.5,Calm,Calm,-,N/A,,Overcast,0,2011-11-25 13:17:00
6:25 AM,28.4,28.4,100,29.65,0.8,Calm,Calm,-,N/A,,Overcast,0,2011-11-25 13:25:00
6:38 AM,28.4,26.6,93,29.64,0.2,East,5.8,-,N/A,Fog,Light Freezing Fog,90,2011-11-25 13:38:00
6:56 AM,27.0,27.0,100,29.70,0.2,ESE,3.5,-,N/A,Fog,Light Freezing Fog,110,2011-11-25 13:56:00
7:56 AM,28.0,28.0,100,29.70,0.2,Calm,Calm,-,N/A,Fog,Light Freezing Fog,0,2011-11-25 14:56:00
8:56 AM,28.9,28.9,100,29.69,0.2,East,6.9,-,N/A,Fog,Light Freezing Fog,100,2011-11-25 15:56:00
9:41 AM,30.2,30.2,100,29.63,0.2,Calm,Calm,-,N/A,Fog,Light Freezing Fog,0,2011-11-25 16:41:00
9:53 AM,30.2,30.2,100,29.64,0.2,Calm,Calm,-,N/A,Fog,Light Freezing Fog,0,2011-11-25 16:53:00
9:56 AM,30.9,30.0,96,29.70,0.2,Calm,Calm,-,N/A,Fog,Light Freezing Fog,0,2011-11-25 16:56:00
10:28 AM,32.0,30.2,93,29.62,0.8,ESE,5.8,-,N/A,,Overcast,110,2011-11-25 17:28:00
10:33 AM,32.0,32.0,100,29.62,2.0,ESE,4.6,-,N/A,,Overcast,110,2011-11-25 17:33:00
10:41 AM,33.8,30.2,87,29.63,5.0,ESE,5.8,-,N/A,,Mostly Cloudy,120,2011-11-25 17:41:00
10:53 AM,33.8,30.2,87,29.62,8.0,East,5.8,-,N/A,,Scattered Clouds,100,2011-11-25 17:53:00
10:56 AM,34.0,32.0,92,29.68,8.0,East,4.6,-,N/A,,Partly Cloudy,100,2011-11-25 17:56:00
11:56 AM,42.1,32.0,67,29.64,10.0,Calm,Calm,-,N/A,,Clear,0,2011-11-25 18:56:00
1:56 PM,43.0,30.9,62,29.64,10.0,North,5.8,-,N/A,,Mostly Cloudy,10,2011-11-25 20:56:00
2:56 PM,43.0,32.0,65,29.69,10.0,North,5.8,-,N/A,,Clear,350,2011-11-25 21:56:00
3:56 PM,42.1,28.9,60,29.74,10.0,NNW,10.4,-,N/A,,Clear,340,2011-11-25 22:56:00
4:56 PM,39.9,28.9,65,29.78,10.0,NW,10.4,-,N/A,,Clear,310,2011-11-25 23:56:00
5:56 PM,39.0,26.1,60,29.83,10.0,NW,18.4,26.5,N/A,,Clear,310,2011-11-26 00:56:00
6:56 PM,37.0,24.1,59,29.88,10.0,NW,16.1,-,N/A,,Partly Cloudy,310,2011-11-26 01:56:00
7:56 PM,39.0,23.0,53,29.91,10.0,WNW,17.3,-,N/A,,Overcast,300,2011-11-26 02:56:00
8:56 PM,37.0,21.0,52,29.95,10.0,WNW,13.8,-,N/A,,Partly Cloudy,290,2011-11-26 03:56:00
9:56 PM,36.0,21.0,55,29.97,10.0,WNW,18.4,-,N/A,,Scattered Clouds,290,2011-11-26 04:56:00
10:56 PM,35.1,21.0,57,30.01,10.0,WNW,17.3,24.2,N/A,,Clear,290,2011-11-26 05:56:00
11:56 PM,35.1,23.0,61,30.04,10.0,NW,23.0,31.1,N/A,,Clear,310,2011-11-26 06:56:00